Time;durP1;ratioP1;P1;durP2;ratioP2;P2;SDS_P1;SDS_P2;PMS_P1;PMS_P2;Temp;Humidity;BMP_temperature;BMP_pressure;BME280_temperature;BME280_humidity;BME280_pressure;Samples;Min_cycle;Max_cycle;Signal;HPM_P1;HPM_P2
2023/08/30 00:00:52;;;;;;;9.05;8.15;;;14.10;99.90;;;;;;5120185;27;20485;-82
2023/08/30 00:03:19;;;;;;;9.82;8.93;;;14.00;99.90;;;;;;5091928;27;20050;-81
2023/08/30 00:05:45;;;;;;;9.63;8.73;;;14.00;99.90;;;;;;5107805;27;20043;-82
2023/08/30 00:08:10;;;;;;;9.70;8.70;;;14.00;99.90;;;;;;5073332;27;20054;-81
2023/08/30 00:10:37;;;;;;;9.70;8.80;;;14.00;99.90;;;;;;5086742;27;20464;-82
2023/08/30 00:13:03;;;;;;;9.77;8.73;;;13.90;99.90;;;;;;5109902;27;20053;-81
2023/08/30 00:15:29;;;;;;;9.77;8.88;;;13.90;99.90;;;;;;5075024;27;20038;-81
2023/08/30 00:17:55;;;;;;;11.27;8.85;;;13.90;99.90;;;;;;5092093;27;20038;-81
2023/08/30 00:20:21;;;;;;;9.50;8.70;;;13.90;99.90;;;;;;5120961;27;20050;-81
2023/08/30 00:22:50;;;;;;;10.80;9.80;;;13.90;99.90;;;;;;5094730;27;20172;-81
2023/08/30 00:25:16;;;;;;;10.38;9.38;;;13.90;99.90;;;;;;5110859;27;20121;-81
2023/08/30 00:27:42;;;;;;;10.65;9.60;;;13.80;99.90;;;;;;5094077;27;20079;-81
2023/08/30 00:30:09;;;;;;;9.48;8.63;;;13.80;99.90;;;;;;5091136;27;20590;-82
2023/08/30 00:32:35;;;;;;;9.77;8.98;;;13.80;99.90;;;;;;5093980;27;20133;-82
2023/08/30 00:35:01;;;;;;;9.50;8.50;;;13.70;99.90;;;;;;5092379;27;20133;-82
2023/08/30 00:37:27;;;;;;;10.63;9.73;;;13.70;99.90;;;;;;5082015;27;20133;-82
2023/08/30 00:39:52;;;;;;;11.55;10.40;;;13.70;99.90;;;;;;5088338;27;20073;-82
2023/08/30 00:42:18;;;;;;;11.05;9.88;;;13.80;99.90;;;;;;5072173;27;20035;-82
2023/08/30 00:44:44;;;;;;;11.23;10.13;;;13.80;99.90;;;;;;5095910;27;20054;-81
2023/08/30 00:47:10;;;;;;;12.32;11.18;;;13.70;99.90;;;;;;5098771;27;20042;-81
2023/08/30 00:49:36;;;;;;;11.00;10.00;;;13.70;99.90;;;;;;5082003;27;20038;-81
2023/08/30 00:52:04;;;;;;;11.85;10.35;;;13.70;99.90;;;;;;5092301;27;20043;-81
2023/08/30 00:54:31;;;;;;;11.80;10.70;;;13.70;99.90;;;;;;5104359;27;20095;-82
2023/08/30 00:56:57;;;;;;;11.40;10.30;;;13.60;99.90;;;;;;5074231;27;20042;-81
2023/08/30 00:59:23;;;;;;;12.13;10.07;;;13.60;99.90;;;;;;5089886;27;20046;-82
2023/08/30 01:01:49;;;;;;;11.27;10.02;;;13.60;99.90;;;;;;5089671;27;20107;-81
2023/08/30 01:04:15;;;;;;;10.70;9.65;;;13.60;99.90;;;;;;5075290;27;20042;-81
2023/08/30 01:06:41;;;;;;;11.15;10.15;;;13.60;99.90;;;;;;5088729;27;20486;-81
2023/08/30 01:09:09;;;;;;;10.03;9.03;;;13.60;99.90;;;;;;5108509;27;20066;-80
2023/08/30 01:12:10;;;;;;;10.60;9.40;;;13.60;99.90;;;;;;5090095;27;20129;-81
2023/08/30 01:14:57;;;;;;;12.23;9.35;;;13.50;99.90;;;;;;5109355;27;20809;-81
2023/08/30 01:17:24;;;;;;;9.90;9.00;;;13.50;99.90;;;;;;5125919;27;20046;-81
2023/08/30 01:20:16;;;;;;;10.13;9.13;;;13.50;99.90;;;;;;5072673;27;20465;-81
2023/08/30 01:23:01;;;;;;;9.48;8.57;;;13.50;99.90;;;;;;5121337;27;20073;-80
2023/08/30 01:25:48;;;;;;;9.43;8.40;;;13.50;99.90;;;;;;5107606;27;20103;-81
2023/08/30 01:28:19;;;;;;;10.05;8.55;;;13.50;99.90;;;;;;5103024;27;20118;-81
2023/08/30 01:30:45;;;;;;;9.60;8.60;;;13.40;99.90;;;;;;5105749;27;20046;-80
2023/08/30 01:33:15;;;;;;;9.57;8.68;;;13.40;99.90;;;;;;5106820;27;20039;-80
2023/08/30 01:35:41;;;;;;;8.55;7.65;;;13.40;99.90;;;;;;5109593;27;20580;-80
2023/08/30 01:38:08;;;;;;;9.13;8.27;;;13.40;99.90;;;;;;5104123;27;20471;-80
2023/08/30 01:40:38;;;;;;;9.18;8.27;;;13.40;99.90;;;;;;5107589;27;20050;-80
2023/08/30 01:43:07;;;;;;;9.05;8.20;;;13.40;99.90;;;;;;5110377;27;20034;-81
2023/08/30 01:45:36;;;;;;;9.25;8.20;;;13.30;99.90;;;;;;5124108;27;20486;-82
2023/08/30 01:48:12;;;;;;;9.50;8.52;;;13.30;99.90;;;;;;5122124;27;20041;-81
2023/08/30 01:50:40;;;;;;;10.07;8.70;;;13.20;99.90;;;;;;5109044;27;20481;-81
2023/08/30 01:53:07;;;;;;;9.77;8.40;;;13.20;99.90;;;;;;5099521;28;20517;-80
2023/08/30 01:55:35;;;;;;;9.65;8.73;;;13.20;99.90;;;;;;5107850;27;20054;-81
2023/08/30 01:58:00;;;;;;;9.82;8.70;;;13.20;99.90;;;;;;5111771;27;20133;-80
2023/08/30 02:00:26;;;;;;;10.10;9.10;;;13.20;99.90;;;;;;5080434;27;20191;-80
2023/08/30 02:02:52;;;;;;;10.05;9.13;;;13.20;99.90;;;;;;5075945;28;20054;-81
2023/08/30 02:05:18;;;;;;;9.80;8.85;;;13.10;99.90;;;;;;5048864;28;20054;-81
2023/08/30 02:08:13;;;;;;;9.85;8.85;;;13.10;99.90;;;;;;5065594;28;20433;-81
2023/08/30 02:10:44;;;;;;;10.23;9.13;;;13.10;99.90;;;;;;5099275;28;20039;-82
2023/08/30 02:13:12;;;;;;;9.32;8.32;;;13.00;99.90;;;;;;5075221;28;20044;-82
2023/08/30 02:15:39;;;;;;;9.30;8.40;;;13.00;99.90;;;;;;5061948;28;20040;-81
2023/08/30 02:18:05;;;;;;;;;;;13.00;99.90;;;;;;5060263;28;20050;-82
2023/08/30 02:20:32;;;;;;;10.85;8.30;;;13.00;99.90;;;;;;5064952;28;20022;-81
2023/08/30 02:23:01;;;;;;;9.90;8.35;;;12.90;99.90;;;;;;5065534;28;20036;-81
2023/08/30 02:25:26;;;;;;;8.65;7.70;;;12.90;99.90;;;;;;5052617;28;20082;-82
2023/08/30 02:27:52;;;;;;;9.68;8.48;;;12.90;99.90;;;;;;5048016;28;20072;-80
2023/08/30 02:30:19;;;;;;;9.07;8.10;;;12.90;99.90;;;;;;5045199;28;20047;-80
2023/08/30 02:32:44;;;;;;;8.88;7.97;;;12.90;99.90;;;;;;5073463;28;20051;-80
2023/08/30 02:35:10;;;;;;;9.38;8.45;;;12.90;99.90;;;;;;5048044;28;20039;-81
2023/08/30 02:37:36;;;;;;;9.35;8.45;;;12.90;99.90;;;;;;5048143;28;20082;-81
2023/08/30 02:40:02;;;;;;;9.95;8.13;;;12.90;99.90;;;;;;5058944;28;20394;-80
2023/08/30 02:42:28;;;;;;;8.68;7.85;;;12.80;99.90;;;;;;5049259;28;20044;-81
2023/08/30 02:44:54;;;;;;;8.77;7.88;;;12.80;99.90;;;;;;5046034;28;20062;-81
2023/08/30 02:47:20;;;;;;;11.05;7.88;;;12.80;99.90;;;;;;5045082;28;20040;-82
2023/08/30 02:49:46;;;;;;;8.77;7.30;;;12.80;99.90;;;;;;5062844;28;20627;-81
2023/08/30 02:52:11;;;;;;;8.23;7.18;;;12.80;99.90;;;;;;5048134;28;20619;-81
2023/08/30 02:54:37;;;;;;;7.97;7.10;;;12.80;99.90;;;;;;5046365;28;20364;-81
2023/08/30 02:57:04;;;;;;;8.85;7.90;;;12.80;99.90;;;;;;5041669;28;20046;-81
2023/08/30 02:59:29;;;;;;;9.07;8.03;;;12.80;99.90;;;;;;5060439;28;20052;-80
2023/08/30 03:01:55;;;;;;;11.80;7.88;;;12.80;99.90;;;;;;5071299;28;20554;-81
2023/08/30 03:04:21;;;;;;;9.27;7.68;;;12.80;99.90;;;;;;5097350;28;20075;-84
2023/08/30 03:06:46;;;;;;;8.65;7.47;;;12.80;99.90;;;;;;5066963;28;20398;-86
2023/08/30 03:09:12;;;;;;;8.98;7.43;;;;;;;;;;5069400;28;20050;-83
2023/08/30 03:11:38;;;;;;;8.80;7.90;;;12.80;99.90;;;;;;5089119;28;20044;-85
2023/08/30 03:14:04;;;;;;;7.90;7.13;;;12.80;99.90;;;;;;5086166;27;20069;-86
2023/08/30 03:16:30;;;;;;;8.15;7.22;;;12.80;99.90;;;;;;5093958;27;20043;-86
2023/08/30 03:18:55;;;;;;;8.52;6.80;;;12.80;99.90;;;;;;5081384;27;20142;-83
2023/08/30 03:21:21;;;;;;;8.20;7.40;;;12.80;99.90;;;;;;5072815;27;20044;-85
2023/08/30 03:23:47;;;;;;;7.85;7.05;;;12.80;99.90;;;;;;5086907;27;20038;-83
2023/08/30 03:26:16;;;;;;;9.60;8.07;;;12.80;99.90;;;;;;5109107;27;20043;-86
2023/08/30 03:28:44;;;;;;;8.70;7.80;;;12.80;99.90;;;;;;5110154;27;20103;-88
2023/08/30 03:31:17;;;;;;;8.48;6.82;;;12.80;99.90;;;;;;5109088;27;20053;-83
2023/08/30 03:33:43;;;;;;;8.75;6.80;;;12.80;99.90;;;;;;5090131;27;20043;-85
2023/08/30 03:36:14;;;;;;;7.87;6.23;;;12.80;99.90;;;;;;5091672;27;20058;-83
2023/08/30 03:38:41;;;;;;;7.75;6.85;;;12.70;99.90;;;;;;5092244;27;20035;-83
2023/08/30 03:41:07;;;;;;;8.23;7.07;;;12.70;99.90;;;;;;5074335;27;20129;-86
2023/08/30 03:43:33;;;;;;;7.10;6.40;;;12.70;99.90;;;;;;5088958;27;20140;-84
2023/08/30 03:46:03;;;;;;;7.97;7.18;;;12.70;99.90;;;;;;5091013;27;20130;-83
2023/08/30 03:48:30;;;;;;;7.72;7.00;;;12.60;99.90;;;;;;5107488;27;20204;-85
2023/08/30 03:50:56;;;;;;;7.85;6.88;;;12.60;99.90;;;;;;5087738;28;20039;-83
2023/08/30 03:53:22;;;;;;;9.20;7.72;;;12.60;99.90;;;;;;5089218;27;20075;-82
2023/08/30 03:55:48;;;;;;;8.23;7.25;;;12.60;99.90;;;;;;5071483;28;20047;-81
2023/08/30 03:58:13;;;;;;;9.23;7.95;;;12.50;99.90;;;;;;5089515;27;20039;-83
2023/08/30 04:00:39;;;;;;;7.93;7.13;;;12.50;99.90;;;;;;5108322;27;20572;-82
2023/08/30 04:03:09;;;;;;;8.10;7.30;;;12.50;99.90;;;;;;5106728;27;20513;-82
2023/08/30 04:05:36;;;;;;;8.88;7.85;;;12.50;99.90;;;;;;5085524;28;20039;-87
2023/08/30 04:08:03;;;;;;;7.88;7.10;;;12.50;99.90;;;;;;5089178;27;20100;-84
2023/08/30 04:10:29;;;;;;;10.80;7.53;;;12.40;99.90;;;;;;5072754;28;20039;-85
2023/08/30 04:12:55;;;;;;;8.52;7.63;;;12.40;99.90;;;;;;5073335;27;20088;-86
2023/08/30 04:15:21;;;;;;;8.65;7.22;;;12.40;99.90;;;;;;5089771;28;20126;-85
2023/08/30 04:17:46;;;;;;;8.88;7.85;;;12.30;99.90;;;;;;5104279;27;20036;-88
2023/08/30 04:20:12;;;;;;;8.52;7.65;;;12.30;99.90;;;;;;5072554;28;20444;-85
2023/08/30 04:22:38;;;;;;;8.88;7.57;;;12.30;99.90;;;;;;5086801;27;21234;-85
2023/08/30 04:25:04;;;;;;;9.25;8.32;;;12.30;99.90;;;;;;5080331;27;20065;-87
2023/08/30 04:27:30;;;;;;;9.27;8.27;;;12.30;99.90;;;;;;5088779;27;20046;-88
2023/08/30 04:29:56;;;;;;;8.98;8.02;;;12.30;99.90;;;;;;5085578;27;20039;-87
2023/08/30 04:32:22;;;;;;;9.15;7.72;;;12.30;99.90;;;;;;5076868;27;20043;-90
2023/08/30 04:34:47;;;;;;;8.25;7.22;;;12.30;99.90;;;;;;5075922;27;20519;-88
2023/08/30 04:37:13;;;;;;;8.40;7.50;;;12.30;99.90;;;;;;5072315;27;20424;-85
2023/08/30 04:39:40;;;;;;;7.82;7.03;;;12.30;99.90;;;;;;5091370;27;20104;-86
2023/08/30 04:42:06;;;;;;;8.68;7.18;;;12.30;99.90;;;;;;5089401;27;20045;-86
2023/08/30 04:44:32;;;;;;;9.20;7.88;;;12.30;99.90;;;;;;5073504;27;20043;-87
2023/08/30 04:46:57;;;;;;;10.30;7.90;;;12.30;99.90;;;;;;5073328;27;20032;-84
2023/08/30 04:49:25;;;;;;;9.60;7.65;;;12.30;99.90;;;;;;5108918;27;20041;-84
2023/08/30 04:51:51;;;;;;;8.93;7.75;;;12.30;99.90;;;;;;5085192;27;20035;-87
2023/08/30 04:54:17;;;;;;;8.90;8.00;;;12.30;99.90;;;;;;5090106;27;20066;-87
2023/08/30 04:56:43;;;;;;;9.18;7.82;;;12.20;99.90;;;;;;5087954;27;20043;-84
2023/08/30 04:59:08;;;;;;;8.60;7.78;;;12.20;99.90;;;;;;5068376;27;20075;-87
2023/08/30 05:01:34;;;;;;;8.68;7.63;;;12.20;99.90;;;;;;5084486;27;20115;-83
2023/08/30 05:04:00;;;;;;;9.02;6.97;;;12.20;99.90;;;;;;5067086;27;20107;-87
2023/08/30 05:06:26;;;;;;;7.80;6.90;;;12.20;99.90;;;;;;5067951;27;20043;-89
2023/08/30 05:08:52;;;;;;;9.80;7.65;;;12.20;99.90;;;;;;5095891;28;20123;-87
2023/08/30 05:11:18;;;;;;;8.88;7.97;;;12.20;99.90;;;;;;5105286;27;20127;-88
2023/08/30 05:13:43;;;;;;;8.27;7.38;;;12.20;99.90;;;;;;5077821;28;20574;-86
2023/08/30 05:16:09;;;;;;;8.07;7.28;;;12.30;99.90;;;;;;5063291;27;20060;-89
2023/08/30 05:18:35;;;;;;;9.32;7.60;;;12.30;99.90;;;;;;5059869;28;20316;-87
2023/08/30 05:21:03;;;;;;;8.65;7.28;;;12.30;99.90;;;;;;5076878;27;20125;-87
2023/08/30 05:23:29;;;;;;;8.75;7.47;;;12.30;99.90;;;;;;5099159;27;20566;-89
2023/08/30 05:25:55;;;;;;;7.18;6.40;;;12.40;99.90;;;;;;5092351;27;20070;-90
2023/08/30 05:28:20;;;;;;;8.73;7.43;;;12.40;99.90;;;;;;5076479;28;20048;-90
2023/08/30 05:30:46;;;;;;;10.40;7.10;;;12.50;99.90;;;;;;5086344;28;20035;-86
2023/08/30 05:33:12;;;;;;;9.77;7.07;;;12.50;99.90;;;;;;5081000;28;20566;-89
2023/08/30 05:35:37;;;;;;;8.15;6.78;;;12.60;99.90;;;;;;5087124;27;20525;-89
2023/08/30 05:38:03;;;;;;;9.00;7.47;;;12.60;99.90;;;;;;5080769;27;20115;-90
2023/08/30 05:40:29;;;;;;;9.23;7.38;;;12.70;99.90;;;;;;5080598;27;20047;-90
2023/08/30 05:42:55;;;;;;;8.45;7.55;;;12.80;99.90;;;;;;5073230;28;20043;-89
2023/08/30 05:45:21;;;;;;;8.00;7.15;;;12.80;99.90;;;;;;5079471;27;20505;-89
2023/08/30 05:47:47;;;;;;;7.90;7.05;;;12.80;99.90;;;;;;5076641;28;20035;-90
2023/08/30 05:50:13;;;;;;;9.93;7.50;;;12.90;99.90;;;;;;5063960;27;20028;-91
2023/08/30 05:52:41;;;;;;;8.05;7.05;;;12.90;99.90;;;;;;5085864;28;20480;-91
2023/08/30 05:55:09;;;;;;;;;;;13.00;99.90;;;;;;5066303;27;20125;-93
2023/08/30 05:57:35;;;;;;;9.90;7.57;;;13.00;99.90;;;;;;5098459;28;19955;-94
2023/08/30 06:00:02;;;;;;;8.05;6.88;;;13.00;99.90;;;;;;5076354;28;20082;-89
2023/08/30 06:02:27;;;;;;;7.68;6.95;;;13.10;99.90;;;;;;5079741;28;20043;-90
2023/08/30 06:04:53;;;;;;;7.53;6.38;;;13.10;99.90;;;;;;5080731;27;20367;-90
2023/08/30 06:07:19;;;;;;;8.00;6.75;;;13.20;99.90;;;;;;5085769;28;20035;-90
2023/08/30 06:09:44;;;;;;;8.35;7.07;;;13.30;99.90;;;;;;5098005;27;20039;-93
2023/08/30 06:12:10;;;;;;;7.60;6.50;;;13.30;99.90;;;;;;5123226;27;20051;-93
2023/08/30 06:14:36;;;;;;;8.55;6.82;;;13.30;99.90;;;;;;5084348;27;20035;-91
2023/08/30 06:17:02;;;;;;;8.65;6.10;;;13.40;99.90;;;;;;5080988;27;20057;-95
2023/08/30 06:19:28;;;;;;;7.72;6.32;;;13.40;99.90;;;;;;5096203;27;20692;-89
2023/08/30 06:21:54;;;;;;;8.13;7.03;;;13.50;99.90;;;;;;5089744;27;20206;-95
2023/08/30 06:24:19;;;;;;;8.45;7.40;;;13.60;99.90;;;;;;5080646;27;20099;-93
2023/08/30 06:26:45;;;;;;;7.50;6.70;;;13.70;99.90;;;;;;5108974;28;20585;-94
2023/08/30 06:29:11;;;;;;;8.07;6.65;;;13.80;99.90;;;;;;5097064;27;20031;-89
2023/08/30 06:31:37;;;;;;;7.10;6.30;;;14.00;99.90;;;;;;5097534;27;20145;-92
2023/08/30 06:34:02;;;;;;;7.90;6.63;;;14.10;99.90;;;;;;5104694;27;20057;-91
2023/08/30 06:36:28;;;;;;;7.00;6.30;;;14.10;99.90;;;;;;5072992;28;20050;-91
2023/08/30 06:38:54;;;;;;;8.13;6.70;;;14.20;99.90;;;;;;5066100;27;20054;-89
2023/08/30 06:41:19;;;;;;;7.00;6.22;;;14.30;99.90;;;;;;5087712;27;20046;-94
2023/08/30 06:43:45;;;;;;;11.18;7.70;;;14.40;99.90;;;;;;5084242;27;20138;-94
2023/08/30 06:46:11;;;;;;;8.02;6.65;;;14.50;99.90;;;;;;5084434;27;20068;-93
2023/08/30 06:48:37;;;;;;;6.85;6.15;;;14.60;99.90;;;;;;5082965;27;20122;-92
2023/08/30 06:51:03;;;;;;;7.50;6.32;;;14.90;99.90;;;;;;5082102;27;20133;-94
2023/08/30 06:53:28;;;;;;;7.15;5.93;;;15.10;99.90;;;;;;5109235;27;20042;-92
2023/08/30 06:56:01;;;;;;;7.10;6.40;;;15.30;99.90;;;;;;5120719;27;20043;-91
2023/08/30 06:58:27;;;;;;;7.00;6.30;;;15.40;99.90;;;;;;5089002;27;20039;-93
2023/08/30 07:00:53;;;;;;;6.68;5.97;;;15.50;99.90;;;;;;5116763;27;20134;-94
2023/08/30 07:03:19;;;;;;;6.97;6.28;;;15.60;99.90;;;;;;5090392;28;20445;-93
2023/08/30 07:05:47;;;;;;;8.38;6.55;;;15.60;99.90;;;;;;5110989;28;20043;-93
2023/08/30 07:08:14;;;;;;;7.70;6.00;;;15.60;99.90;;;;;;5098897;27;20117;-87
2023/08/30 07:10:40;;;;;;;;;;;15.50;99.90;;;;;;5102559;28;20035;-90
2023/08/30 07:13:10;;;;;;;6.70;5.20;;;15.40;99.90;;;;;;5094677;28;19920;-94
2023/08/30 07:15:36;;;;;;;6.40;5.45;;;15.50;99.90;;;;;;5080596;28;20044;-94
2023/08/30 07:18:03;;;;;;;6.63;5.27;;;15.60;99.90;;;;;;5087061;28;20043;-89
2023/08/30 07:20:29;;;;;;;7.88;5.45;;;15.60;99.90;;;;;;5080930;27;20499;-93
2023/08/30 07:22:55;;;;;;;6.53;5.00;;;15.60;99.90;;;;;;5082704;27;20065;-92
2023/08/30 07:25:20;;;;;;;7.63;5.35;;;15.50;99.90;;;;;;5079506;27;20109;-89
2023/08/30 07:27:46;;;;;;;5.90;4.93;;;15.60;99.90;;;;;;5078897;28;20027;-93
2023/08/30 07:30:12;;;;;;;6.65;5.47;;;15.60;99.90;;;;;;5080957;27;20058;-92
2023/08/30 07:32:38;;;;;;;6.30;5.38;;;15.70;99.90;;;;;;5069539;28;20036;-95
2023/08/30 07:35:05;;;;;;;5.80;4.30;;;15.80;99.90;;;;;;5079757;28;20077;-96
2023/08/30 07:37:31;;;;;;;6.45;5.03;;;15.80;99.90;;;;;;5101089;28;20046;-94
2023/08/30 07:39:57;;;;;;;6.43;5.20;;;15.80;99.90;;;;;;5120049;27;20318;-94
2023/08/30 07:42:22;;;;;;;6.85;5.20;;;15.80;99.90;;;;;;5122237;27;20035;-92
2023/08/30 07:44:48;;;;;;;6.25;5.18;;;15.70;99.90;;;;;;5096481;28;20110;-91
2023/08/30 07:47:14;;;;;;;6.05;5.13;;;15.60;99.90;;;;;;5078887;27;20466;-95
2023/08/30 07:49:40;;;;;;;7.82;4.97;;;15.60;99.90;;;;;;5081551;28;20042;-90
2023/08/30 07:52:10;;;;;;;5.32;4.75;;;15.60;99.90;;;;;;5085378;27;20067;-96
2023/08/30 07:54:37;;;;;;;6.10;4.82;;;15.60;99.90;;;;;;5102022;27;20126;-94
2023/08/30 07:57:03;;;;;;;5.93;4.80;;;15.60;99.90;;;;;;5099209;28;20056;-95
2023/08/30 07:59:29;;;;;;;6.25;5.00;;;15.80;99.90;;;;;;5116076;27;20126;-93
2023/08/30 08:01:56;;;;;;;5.93;4.70;;;15.90;99.90;;;;;;5119438;27;20914;-95
2023/08/30 08:04:22;;;;;;;6.22;5.05;;;16.00;99.90;;;;;;5095506;27;20039;-94
2023/08/30 08:07:07;;;;;;;5.63;4.77;;;16.10;99.90;;;;;;5115862;28;20027;-92
2023/08/30 08:09:33;;;;;;;6.13;4.43;;;16.10;99.90;;;;;;5097556;27;20776;-95
2023/08/30 08:11:59;;;;;;;5.15;4.35;;;16.10;99.90;;;;;;5120202;27;20043;-92
2023/08/30 08:14:25;;;;;;;7.95;4.28;;;16.10;99.90;;;;;;5097802;27;20043;-91
2023/08/30 08:16:51;;;;;;;5.78;4.60;;;16.10;99.90;;;;;;5126978;27;20162;-95
2023/08/30 08:19:17;;;;;;;6.35;4.65;;;16.20;99.90;;;;;;5092592;27;20050;-93
2023/08/30 08:21:42;;;;;;;6.05;4.30;;;16.20;99.90;;;;;;5098560;27;20043;-89
2023/08/30 08:24:08;;;;;;;5.45;4.03;;;16.20;99.90;;;;;;5075137;27;20492;-91
2023/08/30 08:26:34;;;;;;;5.50;4.22;;;16.30;99.90;;;;;;5092306;28;20438;-91
2023/08/30 08:29:03;;;;;;;6.15;4.60;;;16.30;99.90;;;;;;5087136;27;20065;-90
2023/08/30 08:31:29;;;;;;;7.05;4.50;;;16.30;99.90;;;;;;5091465;27;20035;-90
2023/08/30 08:34:12;;;;;;;6.70;4.85;;;16.30;99.90;;;;;;5072394;27;20072;-92
2023/08/30 08:36:42;;;;;;;6.88;4.85;;;16.40;99.90;;;;;;5104391;28;20047;-90
2023/08/30 08:39:09;;;;;;;7.85;5.63;;;16.40;99.90;;;;;;5093457;27;20078;-88
2023/08/30 08:41:42;;;;;;;8.05;6.07;;;16.50;99.90;;;;;;5111395;27;20109;-92
2023/08/30 08:44:08;;;;;;;6.88;4.75;;;16.50;99.90;;;;;;5095211;28;20035;-95
2023/08/30 08:46:36;;;;;;;6.03;5.00;;;16.60;99.90;;;;;;5095529;27;20046;-93
2023/08/30 08:49:11;;;;;;;7.75;5.13;;;16.70;99.90;;;;;;5106121;27;20118;-93
2023/08/30 08:51:37;;;;;;;7.55;5.15;;;16.80;99.90;;;;;;5106162;27;20035;-95
2023/08/30 08:54:04;;;;;;;6.50;4.63;;;16.80;99.90;;;;;;5095104;28;20036;-95
2023/08/30 08:56:33;;;;;;;7.88;5.45;;;16.80;99.90;;;;;;5087294;27;20050;-93
2023/08/30 08:59:00;;;;;;;6.78;5.03;;;16.80;99.90;;;;;;5080795;27;20035;-90
2023/08/30 09:01:27;;;;;;;5.90;4.90;;;16.90;99.90;;;;;;5071609;27;20409;-91
2023/08/30 09:03:52;;;;;;;5.78;4.90;;;16.90;99.90;;;;;;5072869;27;20082;-91
2023/08/30 09:06:19;;;;;;;6.43;4.75;;;17.00;99.90;;;;;;5076698;27;20039;-92
2023/08/30 09:08:44;;;;;;;6.33;4.83;;;17.10;99.90;;;;;;5094907;28;20036;-93
2023/08/30 09:11:10;;;;;;;6.75;5.10;;;17.00;99.90;;;;;;5096033;27;20092;-96
2023/08/30 09:13:36;;;;;;;5.43;4.93;;;17.00;99.90;;;;;;5074660;27;20039;-91
2023/08/30 09:16:05;;;;;;;6.60;5.07;;;17.00;99.90;;;;;;5092248;27;20083;-93
2023/08/30 09:18:30;;;;;;;6.88;5.25;;;17.00;99.90;;;;;;5079133;28;20043;-93
2023/08/30 09:21:07;;;;;;;5.57;4.63;;;17.00;99.90;;;;;;5068597;27;20096;-93
2023/08/30 09:23:33;;;;;;;8.75;5.45;;;16.90;99.90;;;;;;5105649;27;20035;-93
2023/08/30 09:26:00;;;;;;;6.05;4.70;;;16.80;99.90;;;;;;5088894;27;20485;-93
2023/08/30 09:28:26;;;;;;;6.03;4.70;;;16.80;99.90;;;;;;5101771;28;20036;-94
2023/08/30 09:30:53;;;;;;;4.90;3.93;;;16.70;99.90;;;;;;5114024;27;20035;-92
2023/08/30 09:33:32;;;;;;;6.25;4.70;;;16.70;99.90;;;;;;5112444;27;20070;-95
2023/08/30 09:35:59;;;;;;;5.25;4.07;;;16.60;99.90;;;;;;5090258;27;20067;-94
2023/08/30 09:38:26;;;;;;;7.97;4.22;;;16.60;99.90;;;;;;5107389;27;20043;-91
2023/08/30 09:41:02;;;;;;;6.88;4.25;;;16.60;99.90;;;;;;5088118;28;20051;-89
2023/08/30 09:43:27;;;;;;;6.90;4.55;;;16.50;99.90;;;;;;5108752;27;20073;-92
2023/08/30 09:45:53;;;;;;;5.05;4.05;;;16.50;99.90;;;;;;5079344;27;20034;-91
2023/08/30 09:48:23;;;;;;;5.93;4.40;;;16.50;99.90;;;;;;5091996;28;20468;-95
2023/08/30 09:50:54;;;;;;;7.00;4.78;;;16.50;99.90;;;;;;5103114;27;20037;-94
2023/08/30 09:53:25;;;;;;;6.70;5.07;;;16.50;99.90;;;;;;5093684;27;20043;-90
2023/08/30 09:55:52;;;;;;;5.57;4.72;;;16.50;99.90;;;;;;5103246;27;20439;-91
2023/08/30 09:58:21;;;;;;;8.68;4.72;;;16.60;99.90;;;;;;5107310;27;20103;-92
2023/08/30 10:00:47;;;;;;;6.47;4.60;;;16.60;99.90;;;;;;5106762;28;20039;-94
2023/08/30 10:03:13;;;;;;;4.37;3.97;;;16.60;99.90;;;;;;5101121;28;20047;-91
2023/08/30 10:05:40;;;;;;;5.80;4.40;;;16.60;99.90;;;;;;5100042;28;20161;-90
2023/08/30 10:08:09;;;;;;;6.15;3.97;;;16.50;99.90;;;;;;5111785;28;20124;-93
2023/08/30 10:10:35;;;;;;;4.90;4.10;;;16.50;99.90;;;;;;5094505;28;20093;-92
2023/08/30 10:13:02;;;;;;;4.53;3.30;;;16.50;99.90;;;;;;5092535;27;20483;-94
2023/08/30 10:15:32;;;;;;;4.57;3.38;;;16.50;99.90;;;;;;5098156;28;20487;-93
2023/08/30 10:17:58;;;;;;;4.43;3.38;;;16.60;99.90;;;;;;5104990;27;20046;-93
2023/08/30 10:20:25;;;;;;;7.07;3.60;;;16.70;99.90;;;;;;5105977;27;20500;-90
2023/08/30 10:22:52;;;;;;;4.90;3.35;;;16.70;99.90;;;;;;5094283;27;20052;-91
2023/08/30 10:25:22;;;;;;;5.13;3.10;;;16.80;99.90;;;;;;5101875;27;20044;-92
2023/08/30 10:27:49;;;;;;;3.92;3.53;;;16.90;99.90;;;;;;5088971;27;20050;-92
2023/08/30 10:30:18;;;;;;;4.18;3.70;;;16.80;99.90;;;;;;5108067;27;20482;-91
2023/08/30 10:32:45;;;;;;;5.13;3.70;;;16.90;99.90;;;;;;5092926;28;20390;-95
2023/08/30 10:35:17;;;;;;;4.97;3.70;;;16.90;99.90;;;;;;5095488;27;20108;-90
2023/08/30 10:37:54;;;;;;;4.93;4.10;;;17.00;99.90;;;;;;5110874;27;20035;-94
2023/08/30 10:40:22;;;;;;;5.72;4.68;;;17.00;99.90;;;;;;5094740;27;20036;-91
2023/08/30 10:42:58;;;;;;;;;;;17.10;99.90;;;;;;5092807;27;20505;-89
2023/08/30 10:45:24;;;;;;;7.75;4.35;;;17.20;99.90;;;;;;5104453;27;19930;-89
2023/08/30 10:47:55;;;;;;;4.68;4.18;;;17.30;99.90;;;;;;5094763;27;20129;-93
2023/08/30 10:50:34;;;;;;;5.72;4.10;;;17.50;99.90;;;;;;5114637;27;20175;-95
2023/08/30 10:53:00;;;;;;;5.07;3.90;;;17.80;99.90;;;;;;5122709;27;20051;-93
2023/08/30 10:55:26;;;;;;;6.25;4.30;;;18.00;99.90;;;;;;5092317;28;20043;-94
2023/08/30 10:58:04;;;;;;;5.75;4.50;;;18.10;99.90;;;;;;5082797;27;20058;-89
2023/08/30 11:00:31;;;;;;;5.25;4.05;;;18.10;99.90;;;;;;5098006;28;20478;-91
2023/08/30 11:02:56;;;;;;;5.22;3.92;;;18.10;99.90;;;;;;5066330;28;20052;-89
2023/08/30 11:05:24;;;;;;;4.65;3.33;;;18.00;99.90;;;;;;5088936;28;20047;-92
2023/08/30 11:07:51;;;;;;;4.22;3.40;;;18.00;99.90;;;;;;5068105;28;20637;-93
2023/08/30 11:10:17;;;;;;;4.65;3.08;;;17.90;99.90;;;;;;5082118;28;20173;-90
2023/08/30 11:12:44;;;;;;;4.00;2.95;;;17.90;99.90;;;;;;5089337;28;20099;-91
2023/08/30 11:15:13;;;;;;;3.05;2.33;;;17.80;99.90;;;;;;5105550;27;20135;-93
2023/08/30 11:17:39;;;;;;;3.92;3.00;;;17.70;99.90;;;;;;5077141;28;20035;-94
2023/08/30 11:20:20;;;;;;;3.67;2.30;;;17.70;99.90;;;;;;5084826;28;20048;-92
2023/08/30 11:22:47;;;;;;;4.10;2.92;;;17.70;99.90;;;;;;5078152;28;20032;-90
2023/08/30 11:25:13;;;;;;;;;;;17.70;99.90;;;;;;5063056;28;20044;-91
2023/08/30 11:27:39;;;;;;;3.53;2.67;;;17.70;99.90;;;;;;5073896;28;19931;-89
2023/08/30 11:30:08;;;;;;;4.20;2.70;;;17.70;99.90;;;;;;5049069;28;20043;-90
2023/08/30 11:32:39;;;;;;;3.88;2.58;;;17.70;99.90;;;;;;5081864;28;20476;-92
2023/08/30 11:35:06;;;;;;;3.47;2.80;;;17.70;99.90;;;;;;5080106;28;20064;-93
2023/08/30 11:37:32;;;;;;;3.65;2.75;;;17.70;99.90;;;;;;5063784;28;20240;-91
2023/08/30 11:39:58;;;;;;;2.87;2.37;;;17.70;99.90;;;;;;5076389;28;20043;-93
2023/08/30 11:42:25;;;;;;;3.75;2.00;;;17.70;99.90;;;;;;5098227;28;20044;-93
2023/08/30 11:44:51;;;;;;;2.05;1.60;;;17.70;99.90;;;;;;5085141;28;20047;-88
2023/08/30 11:47:24;;;;;;;1.97;1.53;;;17.70;99.90;;;;;;5077077;28;20036;-92
2023/08/30 11:49:52;;;;;;;2.90;1.88;;;17.70;99.90;;;;;;5088580;28;20141;-95
2023/08/30 11:52:22;;;;;;;2.50;1.65;;;17.70;99.90;;;;;;5089250;28;20055;-93
2023/08/30 11:54:51;;;;;;;2.67;1.70;;;17.70;99.90;;;;;;5059030;28;20037;-92
2023/08/30 11:57:17;;;;;;;2.08;1.50;;;17.60;99.90;;;;;;5071375;28;20048;-96
2023/08/30 11:59:52;;;;;;;2.78;1.70;;;17.50;99.90;;;;;;5054374;28;20111;-93
2023/08/30 12:02:18;;;;;;;2.60;1.63;;;17.50;99.90;;;;;;5072059;28;20253;-93
2023/08/30 12:04:45;;;;;;;2.70;1.83;;;17.30;99.90;;;;;;5100288;27;20035;-90
2023/08/30 12:07:25;;;;;;;1.98;1.30;;;17.30;99.90;;;;;;5108342;27;20039;-92
2023/08/30 12:09:51;;;;;;;2.35;1.60;;;17.30;99.90;;;;;;5113046;27;20041;-91
2023/08/30 12:12:22;;;;;;;2.40;1.67;;;17.20;99.90;;;;;;5107909;27;20096;-91
2023/08/30 12:14:56;;;;;;;2.25;1.65;;;17.20;99.90;;;;;;5091855;27;20046;-94
2023/08/30 12:17:25;;;;;;;2.22;1.50;;;17.20;99.90;;;;;;5120509;27;20073;-96
2023/08/30 12:19:59;;;;;;;3.17;2.10;;;17.20;99.90;;;;;;5088038;27;20042;-93
2023/08/30 12:22:41;;;;;;;3.33;2.47;;;17.10;99.90;;;;;;5082558;27;20050;-94
2023/08/30 12:25:20;;;;;;;4.82;3.10;;;17.00;99.90;;;;;;5111964;27;20038;-93
2023/08/30 12:27:46;;;;;;;4.47;3.45;;;17.00;99.90;;;;;;5112160;27;20098;-89
2023/08/30 12:30:14;;;;;;;5.63;3.53;;;16.90;99.90;;;;;;5090692;27;20043;-92
2023/08/30 12:32:40;;;;;;;5.53;4.00;;;16.80;99.90;;;;;;5094864;27;20035;-91
2023/08/30 12:35:06;;;;;;;4.70;4.15;;;16.80;99.90;;;;;;5082927;27;20631;-86
2023/08/30 12:37:32;;;;;;;5.32;4.03;;;16.70;99.90;;;;;;5080590;27;20034;-86
2023/08/30 12:39:58;;;;;;;5.10;4.43;;;16.60;99.90;;;;;;5078728;27;20575;-86
2023/08/30 12:42:24;;;;;;;5.78;4.22;;;16.60;99.90;;;;;;5069527;27;20035;-88
2023/08/30 12:44:49;;;;;;;5.93;4.55;;;16.50;99.90;;;;;;5085908;27;20345;-91
2023/08/30 12:47:15;;;;;;;6.22;4.93;;;16.40;99.90;;;;;;5075915;27;20078;-93
2023/08/30 12:49:41;;;;;;;5.32;4.82;;;16.30;99.90;;;;;;5077819;27;20047;-92